sensor_id;sensor_type;location;lat;lon;timestamp;P1;durP1;ratioP1;P2;durP2;ratioP2
7273;SDS011;3678;60.002;17.846;2022-12-05T00:02:18;4.40;;;3.05;;
7273;SDS011;3678;60.002;17.846;2022-12-05T00:04:45;2.87;;;2.20;;
7273;SDS011;3678;60.002;17.846;2022-12-05T00:07:14;2.83;;;1.90;;
7273;SDS011;3678;60.002;17.846;2022-12-05T00:09:41;3.60;;;2.13;;
7273;SDS011;3678;60.002;17.846;2022-12-05T00:12:08;2.87;;;1.97;;
7273;SDS011;3678;60.002;17.846;2022-12-05T00:14:35;4.00;;;2.37;;
7273;SDS011;3678;60.002;17.846;2022-12-05T00:17:02;3.57;;;2.47;;
7273;SDS011;3678;60.002;17.846;2022-12-05T00:19:29;3.73;;;2.67;;
7273;SDS011;3678;60.002;17.846;2022-12-05T00:21:57;3.17;;;2.10;;
7273;SDS011;3678;60.002;17.846;2022-12-05T00:24:25;3.07;;;2.07;;
7273;SDS011;3678;60.002;17.846;2022-12-05T00:26:53;3.73;;;2.40;;
7273;SDS011;3678;60.002;17.846;2022-12-05T00:29:20;2.20;;;1.80;;
7273;SDS011;3678;60.002;17.846;2022-12-05T00:31:47;2.85;;;2.30;;
7273;SDS011;3678;60.002;17.846;2022-12-05T00:34:14;4.00;;;2.67;;
7273;SDS011;3678;60.002;17.846;2022-12-05T00:36:41;3.53;;;1.77;;
7273;SDS011;3678;60.002;17.846;2022-12-05T00:39:10;3.00;;;2.10;;
7273;SDS011;3678;60.002;17.846;2022-12-05T00:41:39;3.47;;;1.83;;
7273;SDS011;3678;60.002;17.846;2022-12-05T00:44:07;3.73;;;1.97;;
7273;SDS011;3678;60.002;17.846;2022-12-05T00:46:34;3.67;;;2.17;;
7273;SDS011;3678;60.002;17.846;2022-12-05T00:49:02;4.03;;;2.00;;
7273;SDS011;3678;60.002;17.846;2022-12-05T00:51:30;3.03;;;1.40;;
7273;SDS011;3678;60.002;17.846;2022-12-05T00:53:58;3.27;;;1.90;;
7273;SDS011;3678;60.002;17.846;2022-12-05T00:56:26;3.50;;;2.10;;
7273;SDS011;3678;60.002;17.846;2022-12-05T00:58:55;2.37;;;1.97;;
7273;SDS011;3678;60.002;17.846;2022-12-05T01:01:23;2.17;;;1.67;;
7273;SDS011;3678;60.002;17.846;2022-12-05T01:03:52;3.00;;;2.00;;
7273;SDS011;3678;60.002;17.846;2022-12-05T01:06:19;3.10;;;2.03;;
7273;SDS011;3678;60.002;17.846;2022-12-05T01:08:47;4.57;;;1.83;;
7273;SDS011;3678;60.002;17.846;2022-12-05T01:11:15;3.17;;;2.00;;
7273;SDS011;3678;60.002;17.846;2022-12-05T01:13:43;2.60;;;1.97;;
7273;SDS011;3678;60.002;17.846;2022-12-05T01:16:13;3.33;;;1.90;;
7273;SDS011;3678;60.002;17.846;2022-12-05T01:18:41;3.57;;;1.97;;
7273;SDS011;3678;60.002;17.846;2022-12-05T01:21:08;2.40;;;1.70;;
7273;SDS011;3678;60.002;17.846;2022-12-05T01:23:36;2.70;;;1.90;;
7273;SDS011;3678;60.002;17.846;2022-12-05T01:26:04;2.50;;;1.60;;
7273;SDS011;3678;60.002;17.846;2022-12-05T01:28:32;2.37;;;1.60;;
7273;SDS011;3678;60.002;17.846;2022-12-05T01:31:00;2.57;;;1.67;;
7273;SDS011;3678;60.002;17.846;2022-12-05T01:33:31;3.07;;;1.83;;
7273;SDS011;3678;60.002;17.846;2022-12-05T01:35:58;2.63;;;1.70;;
7273;SDS011;3678;60.002;17.846;2022-12-05T01:38:25;2.07;;;1.60;;
7273;SDS011;3678;60.002;17.846;2022-12-05T01:40:58;2.57;;;1.70;;
7273;SDS011;3678;60.002;17.846;2022-12-05T01:43:25;2.93;;;2.03;;
7273;SDS011;3678;60.002;17.846;2022-12-05T01:45:53;2.83;;;2.17;;
7273;SDS011;3678;60.002;17.846;2022-12-05T01:48:21;2.43;;;1.50;;
7273;SDS011;3678;60.002;17.846;2022-12-05T01:50:52;2.67;;;1.80;;
7273;SDS011;3678;60.002;17.846;2022-12-05T01:53:19;2.37;;;1.93;;
7273;SDS011;3678;60.002;17.846;2022-12-05T01:55:47;2.40;;;1.60;;
7273;SDS011;3678;60.002;17.846;2022-12-05T01:58:16;2.80;;;1.73;;
7273;SDS011;3678;60.002;17.846;2022-12-05T02:00:43;2.25;;;1.77;;
7273;SDS011;3678;60.002;17.846;2022-12-05T02:03:12;4.10;;;2.00;;
7273;SDS011;3678;60.002;17.846;2022-12-05T02:05:40;2.87;;;1.47;;
7273;SDS011;3678;60.002;17.846;2022-12-05T02:08:09;1.57;;;1.23;;
7273;SDS011;3678;60.002;17.846;2022-12-05T02:10:38;2.93;;;1.90;;
7273;SDS011;3678;60.002;17.846;2022-12-05T02:13:07;2.70;;;1.73;;
7273;SDS011;3678;60.002;17.846;2022-12-05T02:15:39;2.33;;;1.70;;
7273;SDS011;3678;60.002;17.846;2022-12-05T02:18:20;2.03;;;1.53;;
7273;SDS011;3678;60.002;17.846;2022-12-05T02:21:08;2.03;;;1.20;;
7273;SDS011;3678;60.002;17.846;2022-12-05T02:29:14;2.43;;;1.50;;
7273;SDS011;3678;60.002;17.846;2022-12-05T02:31:49;2.78;;;2.05;;
7273;SDS011;3678;60.002;17.846;2022-12-05T02:34:18;2.17;;;1.80;;
7273;SDS011;3678;60.002;17.846;2022-12-05T02:36:52;2.13;;;1.53;;
7273;SDS011;3678;60.002;17.846;2022-12-05T02:39:20;2.80;;;1.90;;
7273;SDS011;3678;60.002;17.846;2022-12-05T02:41:50;1.67;;;1.30;;
7273;SDS011;3678;60.002;17.846;2022-12-05T02:44:20;2.03;;;1.50;;
7273;SDS011;3678;60.002;17.846;2022-12-05T02:46:50;2.03;;;1.47;;
7273;SDS011;3678;60.002;17.846;2022-12-05T02:49:18;2.80;;;1.90;;
7273;SDS011;3678;60.002;17.846;2022-12-05T02:51:48;2.57;;;1.90;;
7273;SDS011;3678;60.002;17.846;2022-12-05T02:54:17;1.67;;;1.50;;
7273;SDS011;3678;60.002;17.846;2022-12-05T02:56:45;2.87;;;1.80;;
7273;SDS011;3678;60.002;17.846;2022-12-05T02:59:13;2.23;;;1.90;;
7273;SDS011;3678;60.002;17.846;2022-12-05T03:01:42;2.47;;;1.80;;
7273;SDS011;3678;60.002;17.846;2022-12-05T03:04:11;1.57;;;1.43;;
7273;SDS011;3678;60.002;17.846;2022-12-05T03:06:40;1.90;;;1.50;;
7273;SDS011;3678;60.002;17.846;2022-12-05T03:09:10;2.10;;;1.57;;
7273;SDS011;3678;60.002;17.846;2022-12-05T03:11:39;2.90;;;2.03;;
7273;SDS011;3678;60.002;17.846;2022-12-05T03:14:12;2.37;;;1.67;;
7273;SDS011;3678;60.002;17.846;2022-12-05T03:16:42;2.10;;;1.50;;
7273;SDS011;3678;60.002;17.846;2022-12-05T03:19:12;2.67;;;1.80;;
7273;SDS011;3678;60.002;17.846;2022-12-05T03:21:42;4.00;;;1.63;;
7273;SDS011;3678;60.002;17.846;2022-12-05T03:24:12;2.10;;;1.53;;
7273;SDS011;3678;60.002;17.846;2022-12-05T03:26:43;2.57;;;1.80;;
7273;SDS011;3678;60.002;17.846;2022-12-05T03:29:16;2.60;;;1.97;;
7273;SDS011;3678;60.002;17.846;2022-12-05T03:31:48;2.03;;;1.80;;
7273;SDS011;3678;60.002;17.846;2022-12-05T03:34:21;1.93;;;1.63;;
7273;SDS011;3678;60.002;17.846;2022-12-05T03:36:54;1.97;;;1.50;;
7273;SDS011;3678;60.002;17.846;2022-12-05T03:39:23;1.70;;;1.40;;
7273;SDS011;3678;60.002;17.846;2022-12-05T03:41:53;1.87;;;1.57;;
7273;SDS011;3678;60.002;17.846;2022-12-05T03:44:22;1.63;;;1.40;;
7273;SDS011;3678;60.002;17.846;2022-12-05T03:46:52;2.40;;;1.70;;
7273;SDS011;3678;60.002;17.846;2022-12-05T03:49:25;1.87;;;1.57;;
7273;SDS011;3678;60.002;17.846;2022-12-05T03:51:54;2.40;;;2.07;;
7273;SDS011;3678;60.002;17.846;2022-12-05T03:54:24;2.10;;;1.60;;
7273;SDS011;3678;60.002;17.846;2022-12-05T03:56:53;3.47;;;1.83;;
7273;SDS011;3678;60.002;17.846;2022-12-05T03:59:24;2.13;;;1.80;;
7273;SDS011;3678;60.002;17.846;2022-12-05T04:01:53;2.87;;;1.80;;
7273;SDS011;3678;60.002;17.846;2022-12-05T04:04:23;3.97;;;1.80;;
7273;SDS011;3678;60.002;17.846;2022-12-05T04:06:52;2.83;;;2.13;;
7273;SDS011;3678;60.002;17.846;2022-12-05T04:09:22;3.67;;;1.67;;
7273;SDS011;3678;60.002;17.846;2022-12-05T04:11:50;2.40;;;1.70;;
7273;SDS011;3678;60.002;17.846;2022-12-05T04:14:21;2.97;;;1.63;;
7273;SDS011;3678;60.002;17.846;2022-12-05T04:16:50;2.20;;;1.73;;
7273;SDS011;3678;60.002;17.846;2022-12-05T04:19:30;3.00;;;1.90;;
7273;SDS011;3678;60.002;17.846;2022-12-05T04:22:18;2.40;;;1.70;;
7273;SDS011;3678;60.002;17.846;2022-12-05T04:24:44;2.60;;;1.87;;
7273;SDS011;3678;60.002;17.846;2022-12-05T04:27:31;2.33;;;1.70;;
7273;SDS011;3678;60.002;17.846;2022-12-05T04:30:03;2.60;;;2.00;;
7273;SDS011;3678;60.002;17.846;2022-12-05T04:32:33;2.73;;;2.00;;
7273;SDS011;3678;60.002;17.846;2022-12-05T04:35:05;2.30;;;1.80;;
7273;SDS011;3678;60.002;17.846;2022-12-05T04:37:33;1.70;;;1.50;;
7273;SDS011;3678;60.002;17.846;2022-12-05T04:40:03;1.63;;;1.37;;
7273;SDS011;3678;60.002;17.846;2022-12-05T04:42:32;2.40;;;1.80;;
7273;SDS011;3678;60.002;17.846;2022-12-05T04:45:01;1.20;;;1.10;;
7273;SDS011;3678;60.002;17.846;2022-12-05T04:47:29;2.17;;;1.93;;
7273;SDS011;3678;60.002;17.846;2022-12-05T04:49:57;1.93;;;1.53;;
7273;SDS011;3678;60.002;17.846;2022-12-05T04:52:26;1.93;;;1.50;;
7273;SDS011;3678;60.002;17.846;2022-12-05T04:54:55;2.07;;;1.40;;
7273;SDS011;3678;60.002;17.846;2022-12-05T04:57:23;2.20;;;1.70;;
7273;SDS011;3678;60.002;17.846;2022-12-05T04:59:52;2.30;;;1.50;;
7273;SDS011;3678;60.002;17.846;2022-12-05T05:02:20;1.43;;;1.13;;
7273;SDS011;3678;60.002;17.846;2022-12-05T05:04:51;2.67;;;1.30;;
7273;SDS011;3678;60.002;17.846;2022-12-05T05:07:20;1.80;;;1.30;;
7273;SDS011;3678;60.002;17.846;2022-12-05T05:09:48;1.30;;;0.93;;
7273;SDS011;3678;60.002;17.846;2022-12-05T05:12:15;2.10;;;1.40;;
7273;SDS011;3678;60.002;17.846;2022-12-05T05:14:42;2.33;;;1.50;;
7273;SDS011;3678;60.002;17.846;2022-12-05T05:17:10;1.90;;;1.20;;
7273;SDS011;3678;60.002;17.846;2022-12-05T05:19:37;3.23;;;1.60;;
7273;SDS011;3678;60.002;17.846;2022-12-05T05:22:04;2.17;;;1.60;;
7273;SDS011;3678;60.002;17.846;2022-12-05T05:24:31;1.27;;;1.07;;
7273;SDS011;3678;60.002;17.846;2022-12-05T05:27:00;1.87;;;1.30;;
7273;SDS011;3678;60.002;17.846;2022-12-05T05:29:27;1.70;;;1.20;;
7273;SDS011;3678;60.002;17.846;2022-12-05T05:31:54;2.08;;;1.60;;
7273;SDS011;3678;60.002;17.846;2022-12-05T05:34:21;1.77;;;1.40;;
7273;SDS011;3678;60.002;17.846;2022-12-05T05:36:50;1.67;;;1.33;;
7273;SDS011;3678;60.002;17.846;2022-12-05T05:39:18;1.57;;;1.30;;
7273;SDS011;3678;60.002;17.846;2022-12-05T05:41:45;1.20;;;1.10;;
7273;SDS011;3678;60.002;17.846;2022-12-05T05:44:13;1.90;;;1.23;;
7273;SDS011;3678;60.002;17.846;2022-12-05T05:46:41;1.93;;;1.20;;
7273;SDS011;3678;60.002;17.846;2022-12-05T05:49:08;2.10;;;1.40;;
7273;SDS011;3678;60.002;17.846;2022-12-05T05:51:35;1.30;;;1.20;;
7273;SDS011;3678;60.002;17.846;2022-12-05T05:54:03;1.50;;;1.27;;
7273;SDS011;3678;60.002;17.846;2022-12-05T05:56:30;1.90;;;1.43;;
7273;SDS011;3678;60.002;17.846;2022-12-05T05:58:58;1.93;;;1.27;;
7273;SDS011;3678;60.002;17.846;2022-12-05T06:01:27;1.42;;;1.17;;
7273;SDS011;3678;60.002;17.846;2022-12-05T06:03:55;2.47;;;1.40;;
7273;SDS011;3678;60.002;17.846;2022-12-05T06:06:22;2.27;;;1.40;;
7273;SDS011;3678;60.002;17.846;2022-12-05T06:08:49;2.30;;;1.40;;
7273;SDS011;3678;60.002;17.846;2022-12-05T06:11:17;2.37;;;1.47;;
7273;SDS011;3678;60.002;17.846;2022-12-05T06:13:45;3.57;;;1.40;;
7273;SDS011;3678;60.002;17.846;2022-12-05T06:16:13;2.28;;;1.48;;
7273;SDS011;3678;60.002;17.846;2022-12-05T06:18:42;2.10;;;1.30;;
7273;SDS011;3678;60.002;17.846;2022-12-05T06:21:10;2.27;;;1.57;;
7273;SDS011;3678;60.002;17.846;2022-12-05T06:23:37;2.20;;;1.30;;
7273;SDS011;3678;60.002;17.846;2022-12-05T06:26:05;1.80;;;1.20;;
7273;SDS011;3678;60.002;17.846;2022-12-05T06:28:32;1.37;;;1.23;;
7273;SDS011;3678;60.002;17.846;2022-12-05T06:30:59;1.40;;;1.10;;
7273;SDS011;3678;60.002;17.846;2022-12-05T06:33:32;1.77;;;1.30;;
7273;SDS011;3678;60.002;17.846;2022-12-05T06:36:05;1.77;;;1.37;;
7273;SDS011;3678;60.002;17.846;2022-12-05T06:38:32;1.87;;;1.40;;
7273;SDS011;3678;60.002;17.846;2022-12-05T06:41:02;1.80;;;1.30;;
7273;SDS011;3678;60.002;17.846;2022-12-05T06:43:30;1.60;;;1.40;;
7273;SDS011;3678;60.002;17.846;2022-12-05T06:45:57;1.70;;;1.37;;
7273;SDS011;3678;60.002;17.846;2022-12-05T06:48:24;1.80;;;1.40;;
7273;SDS011;3678;60.002;17.846;2022-12-05T06:50:51;2.10;;;1.43;;
7273;SDS011;3678;60.002;17.846;2022-12-05T06:53:20;1.73;;;1.13;;
7273;SDS011;3678;60.002;17.846;2022-12-05T06:55:54;1.50;;;1.23;;
7273;SDS011;3678;60.002;17.846;2022-12-05T06:58:21;1.92;;;1.40;;
7273;SDS011;3678;60.002;17.846;2022-12-05T07:00:49;1.50;;;1.17;;
7273;SDS011;3678;60.002;17.846;2022-12-05T07:03:33;2.17;;;1.70;;
7273;SDS011;3678;60.002;17.846;2022-12-05T07:06:01;1.57;;;1.40;;
7273;SDS011;3678;60.002;17.846;2022-12-05T07:08:30;3.93;;;1.53;;
7273;SDS011;3678;60.002;17.846;2022-12-05T07:10:57;1.50;;;1.10;;
7273;SDS011;3678;60.002;17.846;2022-12-05T07:13:24;2.10;;;1.40;;
7273;SDS011;3678;60.002;17.846;2022-12-05T07:15:51;1.90;;;1.33;;
7273;SDS011;3678;60.002;17.846;2022-12-05T07:18:18;1.77;;;1.30;;
7273;SDS011;3678;60.002;17.846;2022-12-05T07:20:50;1.90;;;1.53;;
7273;SDS011;3678;60.002;17.846;2022-12-05T07:23:21;1.90;;;1.37;;
7273;SDS011;3678;60.002;17.846;2022-12-05T07:25:49;2.33;;;1.60;;
7273;SDS011;3678;60.002;17.846;2022-12-05T07:28:16;2.60;;;1.77;;
7273;SDS011;3678;60.002;17.846;2022-12-05T07:30:44;3.45;;;2.20;;
7273;SDS011;3678;60.002;17.846;2022-12-05T07:33:11;2.90;;;1.90;;
7273;SDS011;3678;60.002;17.846;2022-12-05T07:35:38;3.10;;;1.83;;
7273;SDS011;3678;60.002;17.846;2022-12-05T07:38:05;2.50;;;2.03;;
7273;SDS011;3678;60.002;17.846;2022-12-05T07:40:32;1.63;;;1.40;;
7273;SDS011;3678;60.002;17.846;2022-12-05T07:43:01;2.20;;;1.70;;
7273;SDS011;3678;60.002;17.846;2022-12-05T07:45:28;2.57;;;1.43;;
7273;SDS011;3678;60.002;17.846;2022-12-05T07:47:55;1.70;;;1.40;;
7273;SDS011;3678;60.002;17.846;2022-12-05T07:50:22;2.10;;;1.40;;
7273;SDS011;3678;60.002;17.846;2022-12-05T07:52:50;2.10;;;1.53;;
7273;SDS011;3678;60.002;17.846;2022-12-05T07:55:17;1.13;;;1.03;;
7273;SDS011;3678;60.002;17.846;2022-12-05T07:57:45;1.70;;;1.20;;
7273;SDS011;3678;60.002;17.846;2022-12-05T08:00:14;1.80;;;1.20;;
7273;SDS011;3678;60.002;17.846;2022-12-05T08:02:41;1.73;;;1.40;;
7273;SDS011;3678;60.002;17.846;2022-12-05T08:05:08;1.87;;;1.30;;
7273;SDS011;3678;60.002;17.846;2022-12-05T08:07:36;1.70;;;1.30;;
7273;SDS011;3678;60.002;17.846;2022-12-05T08:10:03;1.73;;;1.20;;
7273;SDS011;3678;60.002;17.846;2022-12-05T08:12:31;1.60;;;1.10;;
7273;SDS011;3678;60.002;17.846;2022-12-05T08:14:58;1.70;;;1.40;;
7273;SDS011;3678;60.002;17.846;2022-12-05T08:17:27;2.57;;;1.77;;
7273;SDS011;3678;60.002;17.846;2022-12-05T08:19:56;1.90;;;1.30;;
7273;SDS011;3678;60.002;17.846;2022-12-05T08:22:23;2.47;;;1.70;;
7273;SDS011;3678;60.002;17.846;2022-12-05T08:24:50;2.07;;;1.60;;
7273;SDS011;3678;60.002;17.846;2022-12-05T08:27:17;2.77;;;1.63;;
7273;SDS011;3678;60.002;17.846;2022-12-05T08:29:45;4.23;;;2.83;;
7273;SDS011;3678;60.002;17.846;2022-12-05T08:32:12;8.87;;;4.17;;
7273;SDS011;3678;60.002;17.846;2022-12-05T08:34:40;6.75;;;3.80;;
7273;SDS011;3678;60.002;17.846;2022-12-05T08:37:08;4.07;;;2.93;;
7273;SDS011;3678;60.002;17.846;2022-12-05T08:39:35;1.83;;;1.40;;
7273;SDS011;3678;60.002;17.846;2022-12-05T08:42:02;2.20;;;1.60;;
7273;SDS011;3678;60.002;17.846;2022-12-05T08:44:29;2.00;;;1.50;;
7273;SDS011;3678;60.002;17.846;2022-12-05T08:46:56;1.97;;;1.17;;
7273;SDS011;3678;60.002;17.846;2022-12-05T08:49:23;1.40;;;1.30;;
7273;SDS011;3678;60.002;17.846;2022-12-05T08:51:52;1.10;;;0.97;;
7273;SDS011;3678;60.002;17.846;2022-12-05T08:54:19;1.33;;;1.13;;
7273;SDS011;3678;60.002;17.846;2022-12-05T08:56:48;2.00;;;1.40;;
7273;SDS011;3678;60.002;17.846;2022-12-05T08:59:16;1.20;;;1.10;;
7273;SDS011;3678;60.002;17.846;2022-12-05T09:01:43;1.90;;;1.37;;
7273;SDS011;3678;60.002;17.846;2022-12-05T09:04:10;1.17;;;1.07;;
7273;SDS011;3678;60.002;17.846;2022-12-05T09:06:38;1.90;;;1.30;;
7273;SDS011;3678;60.002;17.846;2022-12-05T09:09:07;1.53;;;1.13;;
7273;SDS011;3678;60.002;17.846;2022-12-05T09:11:38;1.80;;;1.20;;
7273;SDS011;3678;60.002;17.846;2022-12-05T09:14:10;2.17;;;1.40;;
7273;SDS011;3678;60.002;17.846;2022-12-05T09:16:37;2.30;;;1.60;;
7273;SDS011;3678;60.002;17.846;2022-12-05T09:19:05;2.40;;;1.80;;
7273;SDS011;3678;60.002;17.846;2022-12-05T09:21:34;2.00;;;1.40;;
7273;SDS011;3678;60.002;17.846;2022-12-05T09:24:01;4.47;;;1.60;;
7273;SDS011;3678;60.002;17.846;2022-12-05T09:26:30;1.13;;;1.03;;
7273;SDS011;3678;60.002;17.846;2022-12-05T09:28:57;1.40;;;1.30;;
7273;SDS011;3678;60.002;17.846;2022-12-05T09:31:25;1.75;;;1.50;;
7273;SDS011;3678;60.002;17.846;2022-12-05T09:33:53;1.90;;;1.40;;
7273;SDS011;3678;60.002;17.846;2022-12-05T09:36:21;2.00;;;1.40;;
7273;SDS011;3678;60.002;17.846;2022-12-05T09:38:49;1.63;;;1.10;;
7273;SDS011;3678;60.002;17.846;2022-12-05T09:41:20;1.53;;;1.20;;
7273;SDS011;3678;60.002;17.846;2022-12-05T09:44:14;1.63;;;1.33;;
7273;SDS011;3678;60.002;17.846;2022-12-05T09:46:44;1.30;;;1.20;;
7273;SDS011;3678;60.002;17.846;2022-12-05T09:49:15;2.17;;;1.50;;
7273;SDS011;3678;60.002;17.846;2022-12-05T09:51:43;2.27;;;1.40;;
7273;SDS011;3678;60.002;17.846;2022-12-05T09:54:11;1.90;;;1.40;;
7273;SDS011;3678;60.002;17.846;2022-12-05T09:56:38;3.57;;;1.30;;
7273;SDS011;3678;60.002;17.846;2022-12-05T09:59:08;1.87;;;1.20;;
7273;SDS011;3678;60.002;17.846;2022-12-05T10:01:42;1.50;;;1.20;;
7273;SDS011;3678;60.002;17.846;2022-12-05T10:04:25;3.63;;;1.23;;
7273;SDS011;3678;60.002;17.846;2022-12-05T10:06:57;1.90;;;1.35;;
7273;SDS011;3678;60.002;17.846;2022-12-05T10:12:10;2.53;;;1.10;;
7273;SDS011;3678;60.002;17.846;2022-12-05T10:14:41;2.10;;;1.40;;
7273;SDS011;3678;60.002;17.846;2022-12-05T10:17:15;2.10;;;1.90;;
7273;SDS011;3678;60.002;17.846;2022-12-05T10:19:47;2.30;;;1.43;;
7273;SDS011;3678;60.002;17.846;2022-12-05T10:22:17;1.93;;;1.70;;
7273;SDS011;3678;60.002;17.846;2022-12-05T10:24:45;2.77;;;1.90;;
7273;SDS011;3678;60.002;17.846;2022-12-05T10:27:15;2.10;;;1.57;;
7273;SDS011;3678;60.002;17.846;2022-12-05T10:29:46;2.27;;;1.53;;
7273;SDS011;3678;60.002;17.846;2022-12-05T10:32:17;2.33;;;1.80;;
7273;SDS011;3678;60.002;17.846;2022-12-05T10:34:46;3.03;;;2.10;;
7273;SDS011;3678;60.002;17.846;2022-12-05T10:37:14;2.77;;;1.60;;
7273;SDS011;3678;60.002;17.846;2022-12-05T10:39:41;1.73;;;1.17;;
7273;SDS011;3678;60.002;17.846;2022-12-05T10:42:11;2.33;;;1.60;;
7273;SDS011;3678;60.002;17.846;2022-12-05T10:44:39;2.30;;;1.70;;
7273;SDS011;3678;60.002;17.846;2022-12-05T10:47:07;3.53;;;1.80;;
7273;SDS011;3678;60.002;17.846;2022-12-05T10:49:36;2.20;;;1.63;;
7273;SDS011;3678;60.002;17.846;2022-12-05T10:52:04;2.78;;;2.15;;
7273;SDS011;3678;60.002;17.846;2022-12-05T10:54:33;3.37;;;1.90;;
7273;SDS011;3678;60.002;17.846;2022-12-05T10:57:02;2.37;;;1.80;;
7273;SDS011;3678;60.002;17.846;2022-12-05T10:59:46;2.95;;;2.30;;
7273;SDS011;3678;60.002;17.846;2022-12-05T11:02:17;3.50;;;2.13;;
7273;SDS011;3678;60.002;17.846;2022-12-05T11:04:46;2.87;;;2.23;;
7273;SDS011;3678;60.002;17.846;2022-12-05T11:07:22;3.20;;;2.20;;
7273;SDS011;3678;60.002;17.846;2022-12-05T11:09:55;2.87;;;2.00;;
7273;SDS011;3678;60.002;17.846;2022-12-05T11:12:23;3.33;;;2.13;;
7273;SDS011;3678;60.002;17.846;2022-12-05T11:14:55;3.70;;;2.50;;
7273;SDS011;3678;60.002;17.846;2022-12-05T11:17:24;3.37;;;2.60;;
7273;SDS011;3678;60.002;17.846;2022-12-05T11:19:53;3.43;;;2.47;;
7273;SDS011;3678;60.002;17.846;2022-12-05T11:22:22;3.37;;;2.30;;
7273;SDS011;3678;60.002;17.846;2022-12-05T11:24:55;4.13;;;2.60;;
7273;SDS011;3678;60.002;17.846;2022-12-05T11:27:25;4.03;;;2.40;;
7273;SDS011;3678;60.002;17.846;2022-12-05T11:29:53;3.33;;;2.40;;
7273;SDS011;3678;60.002;17.846;2022-12-05T11:32:21;3.83;;;2.50;;
7273;SDS011;3678;60.002;17.846;2022-12-05T11:34:49;3.43;;;2.30;;
7273;SDS011;3678;60.002;17.846;2022-12-05T11:37:20;4.03;;;2.63;;
7273;SDS011;3678;60.002;17.846;2022-12-05T11:39:49;5.23;;;3.30;;
7273;SDS011;3678;60.002;17.846;2022-12-05T11:42:24;4.73;;;3.30;;
7273;SDS011;3678;60.002;17.846;2022-12-05T11:45:02;4.13;;;3.40;;
7273;SDS011;3678;60.002;17.846;2022-12-05T11:47:39;4.73;;;3.27;;
7273;SDS011;3678;60.002;17.846;2022-12-05T11:50:24;4.80;;;3.07;;
7273;SDS011;3678;60.002;17.846;2022-12-05T11:52:56;5.87;;;3.40;;
7273;SDS011;3678;60.002;17.846;2022-12-05T11:55:27;3.97;;;3.03;;
7273;SDS011;3678;60.002;17.846;2022-12-05T11:57:58;3.57;;;3.03;;
7273;SDS011;3678;60.002;17.846;2022-12-05T12:00:30;3.67;;;2.67;;
7273;SDS011;3678;60.002;17.846;2022-12-05T12:03:16;23.53;;;12.03;;
7273;SDS011;3678;60.002;17.846;2022-12-05T12:05:49;10.67;;;4.10;;
7273;SDS011;3678;60.002;17.846;2022-12-05T12:08:20;15.07;;;4.47;;
7273;SDS011;3678;60.002;17.846;2022-12-05T12:10:51;3.63;;;2.80;;
7273;SDS011;3678;60.002;17.846;2022-12-05T12:13:27;2.80;;;2.20;;
7273;SDS011;3678;60.002;17.846;2022-12-05T12:15:57;9.27;;;3.75;;
7273;SDS011;3678;60.002;17.846;2022-12-05T12:18:35;5.87;;;3.43;;
7273;SDS011;3678;60.002;17.846;2022-12-05T12:21:10;4.67;;;2.60;;
7273;SDS011;3678;60.002;17.846;2022-12-05T12:23:44;4.73;;;2.53;;
7273;SDS011;3678;60.002;17.846;2022-12-05T12:26:15;2.47;;;2.10;;
7273;SDS011;3678;60.002;17.846;2022-12-05T12:28:45;4.70;;;2.60;;
7273;SDS011;3678;60.002;17.846;2022-12-05T12:31:19;2.50;;;2.30;;
7273;SDS011;3678;60.002;17.846;2022-12-05T12:33:51;4.43;;;2.40;;
7273;SDS011;3678;60.002;17.846;2022-12-05T12:36:23;3.70;;;2.30;;
7273;SDS011;3678;60.002;17.846;2022-12-05T12:38:57;3.03;;;2.10;;
7273;SDS011;3678;60.002;17.846;2022-12-05T12:41:36;4.63;;;3.08;;
7273;SDS011;3678;60.002;17.846;2022-12-05T12:44:09;3.27;;;2.30;;
7273;SDS011;3678;60.002;17.846;2022-12-05T12:46:41;3.33;;;2.40;;
7273;SDS011;3678;60.002;17.846;2022-12-05T12:49:19;2.70;;;2.00;;
7273;SDS011;3678;60.002;17.846;2022-12-05T12:51:50;15.77;;;5.77;;
7273;SDS011;3678;60.002;17.846;2022-12-05T12:54:25;13.97;;;5.47;;
7273;SDS011;3678;60.002;17.846;2022-12-05T12:56:57;4.57;;;2.67;;
7273;SDS011;3678;60.002;17.846;2022-12-05T12:59:38;13.53;;;4.30;;
7273;SDS011;3678;60.002;17.846;2022-12-05T13:02:10;8.90;;;3.13;;
7273;SDS011;3678;60.002;17.846;2022-12-05T13:04:40;7.80;;;3.00;;
7273;SDS011;3678;60.002;17.846;2022-12-05T13:07:09;2.60;;;2.00;;
7273;SDS011;3678;60.002;17.846;2022-12-05T13:09:40;5.70;;;3.07;;
7273;SDS011;3678;60.002;17.846;2022-12-05T13:12:09;4.20;;;2.83;;
7273;SDS011;3678;60.002;17.846;2022-12-05T13:14:37;4.13;;;2.60;;
7273;SDS011;3678;60.002;17.846;2022-12-05T13:17:05;6.43;;;2.33;;
7273;SDS011;3678;60.002;17.846;2022-12-05T13:19:36;3.23;;;1.90;;
7273;SDS011;3678;60.002;17.846;2022-12-05T13:22:07;2.23;;;1.70;;
7273;SDS011;3678;60.002;17.846;2022-12-05T13:24:34;2.60;;;1.97;;
7273;SDS011;3678;60.002;17.846;2022-12-05T13:27:05;2.13;;;1.40;;
7273;SDS011;3678;60.002;17.846;2022-12-05T13:29:32;4.33;;;1.87;;
7273;SDS011;3678;60.002;17.846;2022-12-05T13:32:00;3.60;;;1.83;;
7273;SDS011;3678;60.002;17.846;2022-12-05T13:34:41;3.00;;;1.97;;
7273;SDS011;3678;60.002;17.846;2022-12-05T13:37:10;4.30;;;1.77;;
7273;SDS011;3678;60.002;17.846;2022-12-05T13:39:56;2.33;;;1.70;;
7273;SDS011;3678;60.002;17.846;2022-12-05T13:42:43;3.92;;;2.60;;
7273;SDS011;3678;60.002;17.846;2022-12-05T13:45:13;5.32;;;3.67;;
7273;SDS011;3678;60.002;17.846;2022-12-05T13:47:45;2.77;;;1.80;;
7273;SDS011;3678;60.002;17.846;2022-12-05T13:50:16;2.87;;;1.70;;
7273;SDS011;3678;60.002;17.846;2022-12-05T13:52:45;2.73;;;2.10;;
7273;SDS011;3678;60.002;17.846;2022-12-05T13:55:18;2.60;;;1.73;;
7273;SDS011;3678;60.002;17.846;2022-12-05T13:57:49;3.07;;;2.10;;
7273;SDS011;3678;60.002;17.846;2022-12-05T14:00:21;3.70;;;2.60;;
7273;SDS011;3678;60.002;17.846;2022-12-05T14:02:49;7.30;;;4.53;;
7273;SDS011;3678;60.002;17.846;2022-12-05T14:13:39;9.80;;;5.90;;
7273;SDS011;3678;60.002;17.846;2022-12-05T14:18:54;5.77;;;4.23;;
7273;SDS011;3678;60.002;17.846;2022-12-05T14:21:26;5.23;;;3.00;;
7273;SDS011;3678;60.002;17.846;2022-12-05T14:24:02;4.77;;;3.13;;
7273;SDS011;3678;60.002;17.846;2022-12-05T14:26:39;2.50;;;1.97;;
7273;SDS011;3678;60.002;17.846;2022-12-05T14:29:16;3.00;;;1.97;;
7273;SDS011;3678;60.002;17.846;2022-12-05T14:31:48;3.30;;;2.00;;
7273;SDS011;3678;60.002;17.846;2022-12-05T14:34:20;4.77;;;2.10;;
7273;SDS011;3678;60.002;17.846;2022-12-05T14:36:56;2.87;;;2.17;;
7273;SDS011;3678;60.002;17.846;2022-12-05T14:39:29;4.03;;;2.77;;
7273;SDS011;3678;60.002;17.846;2022-12-05T14:41:58;2.80;;;2.10;;
7273;SDS011;3678;60.002;17.846;2022-12-05T14:44:27;3.33;;;2.60;;
7273;SDS011;3678;60.002;17.846;2022-12-05T14:46:56;3.80;;;2.97;;
7273;SDS011;3678;60.002;17.846;2022-12-05T14:49:34;6.23;;;4.03;;
7273;SDS011;3678;60.002;17.846;2022-12-05T14:52:07;4.10;;;3.00;;
7273;SDS011;3678;60.002;17.846;2022-12-05T14:54:36;4.50;;;2.90;;
7273;SDS011;3678;60.002;17.846;2022-12-05T14:57:07;3.67;;;2.80;;
7273;SDS011;3678;60.002;17.846;2022-12-05T14:59:40;3.80;;;2.67;;
7273;SDS011;3678;60.002;17.846;2022-12-05T15:02:13;4.70;;;3.00;;
7273;SDS011;3678;60.002;17.846;2022-12-05T15:04:42;3.20;;;2.80;;
7273;SDS011;3678;60.002;17.846;2022-12-05T15:07:11;6.23;;;3.30;;
7273;SDS011;3678;60.002;17.846;2022-12-05T15:09:43;5.40;;;3.47;;
7273;SDS011;3678;60.002;17.846;2022-12-05T15:12:14;6.57;;;3.97;;
7273;SDS011;3678;60.002;17.846;2022-12-05T15:14:48;5.25;;;4.15;;
7273;SDS011;3678;60.002;17.846;2022-12-05T15:17:20;6.57;;;3.80;;
7273;SDS011;3678;60.002;17.846;2022-12-05T15:19:50;5.10;;;3.13;;
7273;SDS011;3678;60.002;17.846;2022-12-05T15:22:18;4.67;;;2.93;;
7273;SDS011;3678;60.002;17.846;2022-12-05T15:24:47;4.37;;;2.90;;
7273;SDS011;3678;60.002;17.846;2022-12-05T15:27:14;6.80;;;3.17;;
7273;SDS011;3678;60.002;17.846;2022-12-05T15:29:42;6.22;;;3.75;;
7273;SDS011;3678;60.002;17.846;2022-12-05T15:32:15;5.67;;;4.40;;
7273;SDS011;3678;60.002;17.846;2022-12-05T15:34:43;4.60;;;3.43;;
7273;SDS011;3678;60.002;17.846;2022-12-05T15:37:11;4.33;;;3.00;;